Time;durP1;ratioP1;P1;durP2;ratioP2;P2;SDS_P1;SDS_P2;PMS_P1;PMS_P2;Temp;Humidity;BMP_temperature;BMP_pressure;BME280_temperature;BME280_humidity;BME280_pressure;Samples;Min_cycle;Max_cycle;Signal;HPM_P1;HPM_P2
2023/06/10 00:01:31;;;;;;;6.40;3.28;;;17.70;92.20;;;;;;5007784;28;20088;-67
2023/06/10 00:03:57;;;;;;;6.65;3.15;;;17.60;92.40;;;;;;5011683;28;20034;-67
2023/06/10 00:06:24;;;;;;;6.30;3.10;;;17.60;92.50;;;;;;5008607;28;20497;-67
2023/06/10 00:08:51;;;;;;;5.68;3.70;;;17.60;92.70;;;;;;5010766;28;20073;-67
2023/06/10 00:11:17;;;;;;;6.95;3.47;;;17.50;92.70;;;;;;5004186;28;20057;-67
2023/06/10 00:13:43;;;;;;;6.60;3.05;;;17.50;92.80;;;;;;5007085;28;20037;-67
2023/06/10 00:16:09;;;;;;;7.35;3.35;;;17.40;92.90;;;;;;5012415;28;20714;-67
2023/06/10 00:18:38;;;;;;;7.47;3.80;;;17.40;93.20;;;;;;5011616;28;20136;-68
2023/06/10 00:21:04;;;;;;;6.47;3.50;;;17.30;93.30;;;;;;5014808;28;20783;-67
2023/06/10 00:23:30;;;;;;;10.50;3.63;;;17.20;93.40;;;;;;5012329;28;20046;-67
2023/06/10 00:25:59;;;;;;;7.60;3.75;;;17.20;93.60;;;;;;5017579;28;20060;-67
2023/06/10 00:28:25;;;;;;;7.30;3.80;;;17.10;93.70;;;;;;5015212;28;20084;-67
2023/06/10 00:30:51;;;;;;;7.80;4.22;;;17.10;93.90;;;;;;4995136;28;20119;-67
2023/06/10 00:33:17;;;;;;;9.63;3.53;;;17.10;94.10;;;;;;4993664;28;20026;-67
2023/06/10 00:35:43;;;;;;;5.07;3.20;;;17.00;94.10;;;;;;4995720;28;20061;-67
2023/06/10 00:38:09;;;;;;;7.88;3.90;;;17.00;94.30;;;;;;4990245;28;20795;-67
2023/06/10 00:40:41;;;;;;;7.97;4.00;;;16.90;94.50;;;;;;4995948;28;20144;-67
2023/06/10 00:43:07;;;;;;;6.10;3.30;;;16.90;94.60;;;;;;4994534;28;20041;-67
2023/06/10 00:45:33;;;;;;;7.55;3.58;;;16.90;94.60;;;;;;5015529;28;20029;-67
2023/06/10 00:48:04;;;;;;;7.07;4.13;;;16.90;94.60;;;;;;5012316;28;20060;-66
2023/06/10 00:50:30;;;;;;;6.82;3.95;;;16.80;94.60;;;;;;4986790;28;20045;-66
2023/06/10 00:52:58;;;;;;;8.25;4.03;;;16.80;94.60;;;;;;4995256;28;20025;-67
2023/06/10 00:55:27;;;;;;;4.40;3.25;;;16.80;94.70;;;;;;4987837;28;20509;-67
2023/06/10 00:57:54;;;;;;;7.18;3.67;;;16.70;94.80;;;;;;5006073;28;20083;-67
2023/06/10 01:00:20;;;;;;;7.10;3.60;;;16.70;95.00;;;;;;5019998;28;20408;-67
2023/06/10 01:02:46;;;;;;;6.53;3.58;;;16.60;95.00;;;;;;5013212;28;20029;-67
2023/06/10 01:05:12;;;;;;;8.43;3.70;;;16.60;95.00;;;;;;4994092;28;20107;-67
2023/06/10 01:07:56;;;;;;;8.57;3.58;;;16.60;95.60;;;;;;5010753;28;20064;-67
2023/06/10 01:10:47;;;;;;;4.70;2.92;;;16.50;95.30;;;;;;5014036;28;20017;-67
2023/06/10 01:13:13;;;;;;;7.80;3.47;;;16.50;95.40;;;;;;4994167;28;20026;-67
2023/06/10 01:15:39;;;;;;;6.55;3.60;;;16.40;95.50;;;;;;4997173;28;20484;-67
2023/06/10 01:18:09;;;;;;;7.20;3.33;;;16.40;95.80;;;;;;4994884;28;20034;-66
2023/06/10 01:20:39;;;;;;;8.52;3.72;;;16.40;95.70;;;;;;5010488;28;20504;-67
2023/06/10 01:23:06;;;;;;;6.13;3.65;;;16.40;95.90;;;;;;5008677;28;20398;-67
2023/06/10 01:25:36;;;;;;;7.25;4.25;;;16.30;96.00;;;;;;4994213;28;20029;-67
2023/06/10 01:28:06;;;;;;;8.07;3.97;;;16.30;96.10;;;;;;4994536;28;20075;-67
2023/06/10 01:30:43;;;;;;;5.28;3.17;;;16.30;95.90;;;;;;4990747;28;20026;-66
2023/06/10 01:33:10;;;;;;;8.65;3.75;;;16.30;95.90;;;;;;4995113;28;20063;-66
2023/06/10 01:35:38;;;;;;;8.68;3.55;;;16.30;96.10;;;;;;5015089;28;20113;-67
2023/06/10 01:38:05;;;;;;;6.53;3.60;;;16.30;96.20;;;;;;5015875;28;20572;-67
2023/06/10 01:40:32;;;;;;;7.90;3.15;;;16.30;96.00;;;;;;5012130;28;20105;-66
2023/06/10 01:42:58;;;;;;;8.88;3.30;;;16.20;96.40;;;;;;4997304;28;20060;-65
2023/06/10 01:45:24;;;;;;;9.70;4.13;;;16.20;96.70;;;;;;4988825;28;20601;-66
2023/06/10 01:47:50;;;;;;;8.48;4.03;;;16.20;96.50;;;;;;5014696;28;20048;-66
2023/06/10 01:50:16;;;;;;;5.20;3.08;;;16.20;96.40;;;;;;4994000;28;20068;-65
2023/06/10 01:52:42;;;;;;;8.00;3.17;;;16.10;96.40;;;;;;5015002;28;20029;-66
2023/06/10 01:55:08;;;;;;;6.22;3.42;;;16.20;96.30;;;;;;5011771;28;20057;-66
2023/06/10 01:57:33;;;;;;;9.80;3.78;;;16.10;96.30;;;;;;5009018;28;20065;-65
2023/06/10 01:59:59;;;;;;;10.23;3.40;;;16.10;96.70;;;;;;4996573;28;20460;-65
2023/06/10 02:02:25;;;;;;;8.63;3.50;;;16.10;96.50;;;;;;4993284;28;20477;-66
2023/06/10 02:04:51;;;;;;;7.70;3.50;;;16.10;96.50;;;;;;4996791;28;20032;-66
2023/06/10 02:07:20;;;;;;;6.82;3.38;;;16.00;96.40;;;;;;5009153;28;20034;-65
2023/06/10 02:09:46;;;;;;;5.72;3.17;;;16.00;96.40;;;;;;5009440;28;20072;-66
2023/06/10 02:12:11;;;;;;;8.75;3.03;;;16.00;96.60;;;;;;5007891;28;20034;-66
2023/06/10 02:14:37;;;;;;;9.82;3.22;;;15.90;96.70;;;;;;4992240;28;20026;-65
2023/06/10 02:17:04;;;;;;;6.38;3.28;;;15.90;96.80;;;;;;5006791;28;20029;-66
2023/06/10 02:19:30;;;;;;;7.75;3.15;;;15.80;97.00;;;;;;5009701;28;20109;-65
2023/06/10 02:21:56;;;;;;;5.13;2.90;;;15.80;97.00;;;;;;4994144;28;20102;-66
2023/06/10 02:24:22;;;;;;;8.55;3.45;;;15.80;97.00;;;;;;5010391;28;20034;-65
2023/06/10 02:26:47;;;;;;;8.10;3.50;;;15.80;96.90;;;;;;5014784;28;20048;-65
2023/06/10 02:29:14;;;;;;;7.13;3.00;;;15.70;96.90;;;;;;5009206;28;20034;-66
2023/06/10 02:31:40;;;;;;;9.02;3.28;;;15.70;97.10;;;;;;4998967;28;20040;-65
2023/06/10 02:34:07;;;;;;;6.03;3.28;;;15.70;97.20;;;;;;4989049;28;20025;-65
2023/06/10 02:36:35;;;;;;;10.05;3.65;;;15.70;97.30;;;;;;4993231;28;20025;-66
2023/06/10 02:39:02;;;;;;;4.05;2.70;;;15.70;97.50;;;;;;5012751;28;20029;-65
2023/06/10 02:41:28;;;;;;;7.60;3.60;;;15.60;97.40;;;;;;4993195;28;20038;-65
2023/06/10 02:43:54;;;;;;;4.85;2.67;;;15.60;97.50;;;;;;4995666;28;20040;-65
2023/06/10 02:46:21;;;;;;;10.02;3.47;;;15.60;97.50;;;;;;4993058;28;20116;-66
2023/06/10 02:48:49;;;;;;;7.90;3.53;;;15.60;97.40;;;;;;4991920;28;20083;-65
2023/06/10 02:51:20;;;;;;;6.75;3.10;;;15.60;97.50;;;;;;4994462;28;20075;-66
2023/06/10 02:53:48;;;;;;;8.40;2.97;;;15.60;97.60;;;;;;4994350;28;20181;-66
2023/06/10 02:56:17;;;;;;;6.75;2.88;;;15.60;97.70;;;;;;4990976;28;20032;-66
2023/06/10 02:58:42;;;;;;;9.20;3.08;;;15.50;97.70;;;;;;4994837;28;20029;-66
2023/06/10 03:01:10;;;;;;;9.02;3.65;;;15.50;97.70;;;;;;4990038;28;20120;-66
2023/06/10 03:03:46;;;;;;;5.67;2.97;;;15.60;97.70;;;;;;4991844;28;20033;-66
2023/06/10 03:06:14;;;;;;;7.53;3.25;;;15.50;97.70;;;;;;4992878;28;20022;-65
2023/06/10 03:08:41;;;;;;;11.75;3.28;;;15.50;97.80;;;;;;4993027;28;20809;-65
2023/06/10 03:11:11;;;;;;;6.00;3.15;;;15.50;97.80;;;;;;4996847;28;20025;-65
2023/06/10 03:13:41;;;;;;;7.65;3.00;;;15.50;97.90;;;;;;4995181;28;20030;-65
2023/06/10 03:16:12;;;;;;;7.35;3.33;;;15.50;97.90;;;;;;4994948;28;20780;-66
2023/06/10 03:18:38;;;;;;;9.40;3.40;;;15.50;97.80;;;;;;4994128;28;20037;-65
2023/06/10 03:21:04;;;;;;;8.13;3.25;;;15.50;98.00;;;;;;4995176;28;20595;-66
2023/06/10 03:23:30;;;;;;;7.78;3.30;;;15.40;98.10;;;;;;4996496;28;20096;-66
2023/06/10 03:25:55;;;;;;;6.65;2.47;;;15.40;98.00;;;;;;4994674;28;20124;-65
2023/06/10 03:28:22;;;;;;;5.68;2.55;;;15.50;98.10;;;;;;4994874;28;20040;-66
2023/06/10 03:30:48;;;;;;;9.10;3.35;;;15.40;98.20;;;;;;5009949;28;20025;-65
2023/06/10 03:33:14;;;;;;;5.97;3.00;;;15.40;98.30;;;;;;5011145;28;20424;-66
2023/06/10 03:35:41;;;;;;;6.85;2.70;;;15.40;98.70;;;;;;4994382;28;20508;-66
2023/06/10 03:38:07;;;;;;;12.35;3.30;;;15.40;98.30;;;;;;4990001;28;20033;-65
2023/06/10 03:40:33;;;;;;;6.00;2.97;;;15.40;98.40;;;;;;5011889;28;20054;-66
2023/06/10 03:43:00;;;;;;;7.60;3.08;;;15.40;98.50;;;;;;4992067;28;20041;-65
2023/06/10 03:45:28;;;;;;;6.32;3.00;;;15.50;98.50;;;;;;4987675;28;20423;-66
2023/06/10 03:47:55;;;;;;;10.45;3.25;;;15.50;98.40;;;;;;4994190;28;20037;-66
2023/06/10 03:50:26;;;;;;;7.47;3.13;;;15.50;98.40;;;;;;4991698;28;20026;-65
2023/06/10 03:52:52;;;;;;;7.15;2.55;;;15.50;98.70;;;;;;4992995;28;20025;-66
2023/06/10 03:55:21;;;;;;;6.53;2.90;;;15.50;98.80;;;;;;4977295;28;20026;-66
2023/06/10 03:57:49;;;;;;;6.90;3.45;;;15.50;98.70;;;;;;4994449;28;20031;-66
2023/06/10 04:00:17;;;;;;;7.20;2.85;;;15.60;98.70;;;;;;4995979;28;20041;-66
2023/06/10 04:02:47;;;;;;;9.35;3.13;;;15.60;98.60;;;;;;5010005;28;20084;-66
2023/06/10 04:05:22;;;;;;;7.70;3.50;;;15.60;98.80;;;;;;4993629;28;20029;-66
2023/06/10 04:07:48;;;;;;;7.63;3.42;;;15.60;98.80;;;;;;5012429;28;20429;-67
2023/06/10 04:10:15;;;;;;;8.48;3.00;;;15.60;99.00;;;;;;5012468;28;20030;-67
2023/06/10 04:12:41;;;;;;;6.22;3.30;;;15.70;99.20;;;;;;5001849;28;20034;-67
2023/06/10 04:15:08;;;;;;;7.65;3.33;;;15.70;99.00;;;;;;4994793;28;20030;-67
2023/06/10 04:17:34;;;;;;;8.32;3.53;;;15.80;99.00;;;;;;4989663;28;20132;-67
2023/06/10 04:20:00;;;;;;;7.47;3.13;;;15.80;99.10;;;;;;5009145;28;20029;-67
2023/06/10 04:22:27;;;;;;;10.88;3.33;;;15.90;99.10;;;;;;4989212;28;20440;-67
2023/06/10 04:24:53;;;;;;;8.95;3.13;;;15.90;99.00;;;;;;4991840;28;20022;-67
2023/06/10 04:27:19;;;;;;;7.10;3.15;;;16.00;99.10;;;;;;5009671;28;20083;-67
2023/06/10 04:29:45;;;;;;;7.47;2.85;;;16.00;99.40;;;;;;4992581;28;20032;-68
2023/06/10 04:32:11;;;;;;;7.40;3.13;;;16.10;99.10;;;;;;5012247;28;20026;-67
2023/06/10 04:34:40;;;;;;;8.52;3.38;;;16.10;99.10;;;;;;4998158;28;20026;-67
2023/06/10 04:37:06;;;;;;;5.70;2.88;;;16.20;99.30;;;;;;4991265;28;20029;-67
2023/06/10 04:39:33;;;;;;;8.38;3.08;;;16.30;99.10;;;;;;4979785;28;20026;-66
2023/06/10 04:42:01;;;;;;;7.43;3.33;;;16.30;99.20;;;;;;4966258;28;20022;-67
2023/06/10 04:44:28;;;;;;;8.25;3.15;;;16.40;99.20;;;;;;4990638;28;20623;-67
2023/06/10 04:46:55;;;;;;;7.72;3.25;;;16.40;99.10;;;;;;5012394;28;20049;-67
2023/06/10 04:49:22;;;;;;;7.88;3.38;;;16.50;99.10;;;;;;4989230;28;20040;-67
2023/06/10 04:51:48;;;;;;;10.00;3.90;;;16.50;99.10;;;;;;4994013;28;20029;-67
2023/06/10 04:54:14;;;;;;;7.90;3.65;;;16.60;98.80;;;;;;4994908;28;20033;-67
2023/06/10 04:56:39;;;;;;;9.85;3.88;;;16.60;98.80;;;;;;5009460;28;20033;-67
2023/06/10 04:59:05;;;;;;;14.25;3.72;;;16.70;98.80;;;;;;5005311;28;20497;-67
2023/06/10 05:01:31;;;;;;;14.20;3.72;;;16.80;98.60;;;;;;5010181;28;20030;-67
2023/06/10 05:03:57;;;;;;;7.03;3.38;;;16.90;98.50;;;;;;5009354;28;20037;-67
2023/06/10 05:06:22;;;;;;;7.20;3.22;;;16.90;98.60;;;;;;5012958;28;20786;-67
2023/06/10 05:08:48;;;;;;;8.73;3.30;;;17.00;98.60;;;;;;5014930;28;20060;-67
2023/06/10 05:11:14;;;;;;;8.30;3.58;;;17.10;98.50;;;;;;5015824;28;20398;-68
2023/06/10 05:13:42;;;;;;;10.57;3.70;;;17.20;98.40;;;;;;5012105;28;20022;-67
2023/06/10 05:16:09;;;;;;;8.75;3.60;;;17.30;98.20;;;;;;5009308;28;20519;-67
2023/06/10 05:18:35;;;;;;;8.48;3.97;;;17.30;97.90;;;;;;5008776;28;20073;-67
2023/06/10 05:21:02;;;;;;;7.93;3.83;;;17.40;98.00;;;;;;5012150;28;20040;-67
2023/06/10 05:23:28;;;;;;;8.10;4.10;;;17.50;98.00;;;;;;4994651;28;20096;-67
2023/06/10 05:25:54;;;;;;;7.40;3.55;;;17.70;97.70;;;;;;5013560;28;20795;-67
2023/06/10 05:28:20;;;;;;;6.10;3.78;;;17.80;97.30;;;;;;5015969;28;20053;-67
2023/06/10 05:30:46;;;;;;;7.53;4.57;;;17.90;97.20;;;;;;5013146;28;20563;-67
2023/06/10 05:33:12;;;;;;;6.68;3.50;;;18.00;96.80;;;;;;5013221;28;20241;-68
2023/06/10 05:35:38;;;;;;;11.18;4.20;;;18.10;96.70;;;;;;4993393;28;20517;-67
2023/06/10 05:38:04;;;;;;;10.68;4.20;;;18.20;96.10;;;;;;5015035;28;20033;-67
2023/06/10 05:40:29;;;;;;;7.47;4.15;;;18.20;96.10;;;;;;5011084;28;20040;-67
2023/06/10 05:42:55;;;;;;;10.82;4.55;;;18.20;96.30;;;;;;5016297;28;20030;-67
2023/06/10 05:45:21;;;;;;;10.07;4.57;;;18.30;96.00;;;;;;5017527;28;20095;-67
2023/06/10 05:47:46;;;;;;;9.13;3.85;;;18.40;95.90;;;;;;5017370;28;20151;-68
2023/06/10 05:50:12;;;;;;;9.68;4.28;;;18.40;96.20;;;;;;5012185;28;20481;-67
2023/06/10 05:52:41;;;;;;;7.82;4.35;;;18.50;96.00;;;;;;5014281;28;20108;-67
2023/06/10 05:55:07;;;;;;;7.57;4.40;;;18.60;95.50;;;;;;5016794;28;20032;-67
2023/06/10 05:57:33;;;;;;;6.78;3.65;;;18.70;95.50;;;;;;5011553;28;20038;-67
2023/06/10 05:59:59;;;;;;;10.90;4.93;;;18.80;95.60;;;;;;5018355;28;20038;-67
2023/06/10 06:02:25;;;;;;;12.35;4.85;;;18.90;95.20;;;;;;5008606;28;20036;-67
2023/06/10 06:04:51;;;;;;;9.10;4.53;;;19.00;94.70;;;;;;5017454;28;20060;-67
2023/06/10 06:07:17;;;;;;;10.43;4.28;;;19.00;94.80;;;;;;5010274;28;20390;-65
2023/06/10 06:09:42;;;;;;;8.48;4.65;;;19.10;94.80;;;;;;5013205;28;20080;-66
2023/06/10 06:12:09;;;;;;;9.38;4.72;;;19.30;94.60;;;;;;5015056;28;20033;-66
2023/06/10 06:14:41;;;;;;;7.57;4.05;;;19.40;94.20;;;;;;5012797;28;20543;-65
2023/06/10 06:17:07;;;;;;;7.53;4.53;;;19.50;94.20;;;;;;5013133;28;20063;-66
2023/06/10 06:19:33;;;;;;;9.35;4.55;;;19.60;93.80;;;;;;5013689;28;20033;-67
2023/06/10 06:21:59;;;;;;;9.73;4.35;;;19.70;93.70;;;;;;5022937;28;20405;-67
2023/06/10 06:24:25;;;;;;;11.40;4.78;;;19.70;93.60;;;;;;5010233;28;20045;-66
2023/06/10 06:26:51;;;;;;;8.95;5.07;;;19.90;93.60;;;;;;5008633;28;20057;-66
2023/06/10 06:29:16;;;;;;;6.75;4.05;;;19.90;92.90;;;;;;4993110;28;20053;-66
2023/06/10 06:31:42;;;;;;;7.72;4.80;;;19.90;92.90;;;;;;5012507;28;20197;-67
2023/06/10 06:34:08;;;;;;;8.98;4.45;;;19.90;93.10;;;;;;4994170;28;20619;-66
2023/06/10 06:36:34;;;;;;;9.95;4.82;;;20.00;93.10;;;;;;5015315;28;20395;-66
2023/06/10 06:38:59;;;;;;;11.38;4.57;;;20.00;92.80;;;;;;5011384;28;20711;-67
2023/06/10 06:41:27;;;;;;;11.63;4.80;;;20.10;92.50;;;;;;4994028;28;20034;-66
2023/06/10 06:43:54;;;;;;;9.32;4.60;;;20.10;92.40;;;;;;5012527;28;20041;-66
2023/06/10 06:46:24;;;;;;;9.05;5.20;;;20.20;92.70;;;;;;5010858;28;20478;-66
2023/06/10 06:48:50;;;;;;;8.95;4.35;;;20.30;92.40;;;;;;5017842;28;20067;-65
2023/06/10 06:51:16;;;;;;;9.32;4.47;;;20.30;92.10;;;;;;5012722;28;20029;-65
2023/06/10 06:53:44;;;;;;;8.43;4.78;;;20.30;92.00;;;;;;5016126;28;20032;-65
2023/06/10 06:56:13;;;;;;;8.95;4.82;;;20.30;91.80;;;;;;5012592;28;20389;-65
2023/06/10 06:58:39;;;;;;;10.88;5.10;;;20.30;92.10;;;;;;5012207;28;20041;-65
2023/06/10 07:01:05;;;;;;;8.07;4.72;;;20.30;91.90;;;;;;5012753;28;20029;-65
2023/06/10 07:03:31;;;;;;;6.40;4.72;;;20.30;92.10;;;;;;5012737;28;20065;-65
2023/06/10 07:05:57;;;;;;;9.25;4.57;;;20.30;91.80;;;;;;5015037;28;20029;-65
2023/06/10 07:08:23;;;;;;;8.63;4.85;;;20.30;91.60;;;;;;5011593;28;20057;-65
2023/06/10 07:10:49;;;;;;;8.68;4.78;;;20.40;91.80;;;;;;4997032;28;20099;-65
2023/06/10 07:13:15;;;;;;;12.50;5.38;;;20.50;91.60;;;;;;5010692;28;20034;-65
2023/06/10 07:15:41;;;;;;;6.82;5.00;;;20.60;91.10;;;;;;5015630;28;20036;-65
2023/06/10 07:18:06;;;;;;;11.10;5.55;;;20.80;91.10;;;;;;5011664;28;20041;-65
2023/06/10 07:20:32;;;;;;;9.75;4.40;;;21.00;90.70;;;;;;5012711;28;20033;-66
2023/06/10 07:22:58;;;;;;;9.77;5.20;;;21.20;90.10;;;;;;5016124;28;20037;-66
2023/06/10 07:25:24;;;;;;;12.75;5.25;;;21.30;90.10;;;;;;5011578;28;20128;-66
2023/06/10 07:27:49;;;;;;;8.35;4.93;;;21.40;90.00;;;;;;5015615;28;20037;-65
2023/06/10 07:30:15;;;;;;;10.65;5.55;;;21.50;89.60;;;;;;5012937;28;20606;-65
2023/06/10 07:32:41;;;;;;;10.20;4.90;;;21.60;89.30;;;;;;5016319;28;20421;-65
2023/06/10 07:35:12;;;;;;;9.55;4.70;;;21.70;89.70;;;;;;5011363;28;20142;-65
2023/06/10 07:37:38;;;;;;;7.75;5.40;;;21.80;89.20;;;;;;5009597;28;20379;-65
2023/06/10 07:40:04;;;;;;;10.55;4.95;;;22.00;88.70;;;;;;5014897;28;20055;-65
2023/06/10 07:42:33;;;;;;;9.15;5.78;;;22.10;88.40;;;;;;5015874;28;20026;-65
2023/06/10 07:44:58;;;;;;;9.85;5.68;;;22.20;87.70;;;;;;5019858;28;20090;-66
2023/06/10 07:47:24;;;;;;;9.80;5.57;;;22.30;86.10;;;;;;5014238;28;20137;-66
2023/06/10 07:49:50;;;;;;;8.63;5.35;;;22.30;87.40;;;;;;5015354;28;20740;-66
2023/06/10 07:52:16;;;;;;;9.27;5.20;;;22.30;87.10;;;;;;5011647;28;20026;-65
2023/06/10 07:54:41;;;;;;;11.23;5.30;;;22.40;86.30;;;;;;5011713;28;20110;-66
2023/06/10 07:57:07;;;;;;;12.55;5.20;;;22.50;86.60;;;;;;5013243;28;20029;-66
2023/06/10 07:59:33;;;;;;;7.63;5.63;;;22.60;85.50;;;;;;5011430;28;20076;-66
2023/06/10 08:01:59;;;;;;;11.60;5.28;;;22.70;87.00;;;;;;5013041;28;20120;-66
2023/06/10 08:04:25;;;;;;;8.63;5.78;;;22.80;85.30;;;;;;5013420;28;21025;-68
2023/06/10 08:06:51;;;;;;;8.38;5.20;;;22.90;84.00;;;;;;5012009;28;20030;-68
2023/06/10 08:09:18;;;;;;;10.63;5.25;;;22.90;84.50;;;;;;5013740;28;20457;-68
2023/06/10 08:11:46;;;;;;;9.82;5.22;;;23.00;84.50;;;;;;5007608;28;20022;-65
2023/06/10 08:14:12;;;;;;;7.95;5.18;;;23.10;84.20;;;;;;5012326;28;20083;-66
2023/06/10 08:16:37;;;;;;;9.32;5.68;;;23.20;84.10;;;;;;5011419;28;20026;-66
2023/06/10 08:19:03;;;;;;;12.77;5.80;;;23.40;83.50;;;;;;5012352;28;20441;-66
2023/06/10 08:21:29;;;;;;;6.88;5.03;;;23.50;83.10;;;;;;5012098;28;20100;-66
2023/06/10 08:23:57;;;;;;;11.57;5.28;;;23.60;83.00;;;;;;5012574;28;20037;-66
2023/06/10 08:26:23;;;;;;;8.40;5.63;;;23.80;82.30;;;;;;5012163;28;20057;-67
2023/06/10 08:28:49;;;;;;;9.30;5.57;;;23.90;81.80;;;;;;5009488;28;20912;-66
2023/06/10 08:31:15;;;;;;;11.57;5.75;;;24.10;81.10;;;;;;5008584;28;20037;-66
2023/06/10 08:33:42;;;;;;;11.13;5.18;;;24.30;79.90;;;;;;5011912;28;20462;-66
2023/06/10 08:36:08;;;;;;;9.82;5.60;;;24.30;78.90;;;;;;5011604;28;20025;-65
2023/06/10 08:38:34;;;;;;;7.70;5.25;;;24.40;79.30;;;;;;5012250;28;20063;-67
2023/06/10 08:41:01;;;;;;;9.57;5.13;;;24.50;77.50;;;;;;5015436;28;20045;-67
2023/06/10 08:43:36;;;;;;;9.57;5.25;;;24.50;76.90;;;;;;5002976;28;20029;-68
2023/06/10 08:46:02;;;;;;;9.57;5.60;;;24.60;76.40;;;;;;5009899;28;20038;-68
2023/06/10 08:48:35;;;;;;;10.52;5.57;;;24.60;77.10;;;;;;5013635;28;20045;-66
2023/06/10 08:51:05;;;;;;;11.10;5.97;;;24.80;76.60;;;;;;4989060;28;20029;-67
2023/06/10 08:53:33;;;;;;;13.07;8.05;;;24.80;76.30;;;;;;5007887;28;20037;-62
2023/06/10 08:56:03;;;;;;;13.93;8.13;;;24.80;72.90;;;;;;5007086;28;20795;-63
2023/06/10 08:58:29;;;;;;;9.85;5.43;;;24.80;73.10;;;;;;4995932;28;20044;-62
2023/06/10 09:00:55;;;;;;;9.77;5.32;;;24.70;74.90;;;;;;5012932;28;20033;-63
2023/06/10 09:03:24;;;;;;;10.32;5.88;;;24.80;76.20;;;;;;5015265;28;20037;-63
2023/06/10 09:05:50;;;;;;;24.05;16.90;;;24.80;74.30;;;;;;5008016;28;20041;-63
2023/06/10 09:08:16;;;;;;;23.75;17.45;;;24.80;73.70;;;;;;5007918;28;20469;-62
2023/06/10 09:10:43;;;;;;;13.88;10.32;;;24.90;74.00;;;;;;4987840;28;20030;-61
2023/06/10 09:13:09;;;;;;;12.98;8.93;;;25.00;75.40;;;;;;4990907;28;20029;-61
2023/06/10 09:15:35;;;;;;;9.88;6.18;;;25.00;75.00;;;;;;4993855;28;20887;-61
2023/06/10 09:18:01;;;;;;;17.38;7.85;;;25.10;73.80;;;;;;5014145;28;20044;-59
2023/06/10 09:20:27;;;;;;;10.30;5.90;;;25.20;73.80;;;;;;5011352;28;20048;-61
2023/06/10 09:22:53;;;;;;;10.95;6.15;;;25.30;73.50;;;;;;5014988;28;20776;-59
2023/06/10 09:25:33;;;;;;;12.68;6.18;;;25.30;72.30;;;;;;5012941;28;20048;-58
2023/06/10 09:27:59;;;;;;;8.65;5.20;;;25.20;72.50;;;;;;5008757;28;20773;-60
2023/06/10 09:30:34;;;;;;;8.80;5.15;;;25.30;73.30;;;;;;5008749;28;20034;-61
2023/06/10 09:33:02;;;;;;;8.65;5.25;;;25.40;72.40;;;;;;5008470;28;20030;-58
2023/06/10 09:35:30;;;;;;;9.32;5.05;;;25.40;72.30;;;;;;5009261;28;20045;-60
2023/06/10 09:38:00;;;;;;;10.77;5.82;;;25.50;72.00;;;;;;5004893;28;20482;-60
2023/06/10 09:40:27;;;;;;;8.82;5.75;;;25.40;71.00;;;;;;5007623;28;20061;-60
2023/06/10 09:42:55;;;;;;;5.65;4.97;;;25.40;71.30;;;;;;4999812;28;20709;-61
2023/06/10 09:45:21;;;;;;;9.50;5.28;;;25.30;70.70;;;;;;5011833;28;20053;-61
2023/06/10 09:47:51;;;;;;;6.72;4.90;;;25.20;70.90;;;;;;5014094;28;20027;-60
2023/06/10 09:50:17;;;;;;;13.95;5.43;;;25.20;71.30;;;;;;5008337;28;20141;-60
2023/06/10 09:52:45;;;;;;;11.65;5.60;;;25.30;71.60;;;;;;5010690;28;20136;-60
2023/06/10 09:55:11;;;;;;;9.45;5.38;;;25.40;70.20;;;;;;5011525;28;20124;-60
2023/06/10 09:57:37;;;;;;;9.13;5.35;;;25.40;70.70;;;;;;5010595;28;20026;-60
2023/06/10 10:00:10;;;;;;;7.35;5.22;;;25.40;69.70;;;;;;5015704;28;20037;-60
2023/06/10 10:02:50;;;;;;;10.25;5.53;;;25.50;70.30;;;;;;5015139;28;20042;-60
2023/06/10 10:05:18;;;;;;;10.45;5.80;;;25.70;69.00;;;;;;5011838;28;20049;-60
2023/06/10 10:07:45;;;;;;;11.75;5.28;;;25.80;69.00;;;;;;5014979;28;20045;-61
2023/06/10 10:10:12;;;;;;;11.75;5.40;;;26.00;68.30;;;;;;5011814;28;20030;-61
2023/06/10 10:12:39;;;;;;;11.68;6.32;;;26.10;68.10;;;;;;5007355;28;20709;-62
2023/06/10 10:15:10;;;;;;;7.93;5.50;;;26.20;68.10;;;;;;5007762;28;20030;-62
2023/06/10 10:18:06;;;;;;;12.70;6.22;;;26.30;67.10;;;;;;5010318;28;20562;-61
2023/06/10 10:20:34;;;;;;;9.30;5.70;;;26.30;67.10;;;;;;5010204;28;20111;-59
2023/06/10 10:23:03;;;;;;;10.55;6.38;;;26.30;66.80;;;;;;5010893;28;20575;-59
2023/06/10 10:25:40;;;;;;;9.48;6.28;;;26.40;65.80;;;;;;5014002;28;20581;-62
2023/06/10 10:28:11;;;;;;;11.15;5.80;;;26.50;66.10;;;;;;5007036;28;20041;-60
2023/06/10 10:30:46;;;;;;;7.65;5.25;;;26.70;65.60;;;;;;5011576;28;20034;-62
2023/06/10 10:33:36;;;;;;;10.48;5.50;;;26.80;65.20;;;;;;5008320;28;20040;-60
2023/06/10 10:36:02;;;;;;;13.90;5.00;;;26.90;65.40;;;;;;5009198;28;20549;-62
2023/06/10 10:38:28;;;;;;;8.82;5.82;;;27.10;64.60;;;;;;5009177;28;20062;-60
2023/06/10 10:40:59;;;;;;;7.63;4.85;;;27.40;64.40;;;;;;5010610;28;20068;-62
2023/06/10 10:43:26;;;;;;;11.13;5.25;;;27.50;63.40;;;;;;5011446;28;20041;-60
2023/06/10 10:46:00;;;;;;;10.90;5.10;;;27.50;64.10;;;;;;5014420;28;20131;-60
2023/06/10 10:48:29;;;;;;;8.50;5.47;;;27.50;63.30;;;;;;5009254;28;20037;-62
2023/06/10 10:50:58;;;;;;;9.55;5.00;;;27.50;64.00;;;;;;5009127;28;20030;-60
2023/06/10 10:53:25;;;;;;;8.75;5.07;;;27.50;63.60;;;;;;5007993;28;20041;-60
2023/06/10 10:56:04;;;;;;;8.30;5.32;;;27.50;63.90;;;;;;5009213;28;20037;-60
2023/06/10 10:58:31;;;;;;;8.48;4.88;;;27.50;63.10;;;;;;5003386;28;20546;-62
2023/06/10 11:00:57;;;;;;;10.07;5.45;;;27.50;63.80;;;;;;5009589;28;20026;-59
2023/06/10 11:03:29;;;;;;;8.48;4.75;;;27.30;63.80;;;;;;5008976;28;20436;-60
2023/06/10 11:05:57;;;;;;;15.68;5.03;;;27.30;64.30;;;;;;5012833;28;20037;-60
2023/06/10 11:08:29;;;;;;;6.18;5.13;;;27.20;64.40;;;;;;5011663;28;20394;-62
2023/06/10 11:10:55;;;;;;;8.63;5.43;;;27.10;64.60;;;;;;5011488;28;20034;-62
2023/06/10 11:13:22;;;;;;;8.57;5.22;;;27.00;64.40;;;;;;5010926;28;20033;-62
2023/06/10 11:15:49;;;;;;;9.05;5.57;;;26.80;64.20;;;;;;5012203;28;20052;-62
2023/06/10 11:18:21;;;;;;;6.45;4.65;;;26.70;64.30;;;;;;5012789;28;20112;-63
2023/06/10 11:20:49;;;;;;;8.30;5.13;;;26.70;64.40;;;;;;5007039;28;20029;-60
2023/06/10 11:23:28;;;;;;;6.47;5.32;;;26.60;64.40;;;;;;4995919;28;20029;-63
2023/06/10 11:26:38;;;;;;;8.80;4.85;;;26.70;64.20;;;;;;4990940;28;20061;-60
2023/06/10 11:29:08;;;;;;;10.73;4.95;;;26.70;64.40;;;;;;5003051;28;20041;-61
2023/06/10 11:31:52;;;;;;;8.15;4.60;;;26.60;63.40;;;;;;4998236;28;20474;-59
2023/06/10 11:34:26;;;;;;;6.47;4.68;;;26.40;63.60;;;;;;5010426;28;20437;-59
2023/06/10 11:36:53;;;;;;;6.43;4.88;;;26.40;63.40;;;;;;5008569;28;20030;-61
2023/06/10 11:39:20;;;;;;;6.50;4.80;;;26.30;63.50;;;;;;5009145;28;20041;-62
2023/06/10 11:41:46;;;;;;;4.82;4.10;;;26.30;63.80;;;;;;5014375;28;20037;-60
2023/06/10 11:44:13;;;;;;;6.18;4.18;;;26.30;62.80;;;;;;5009808;28;20033;-61
2023/06/10 11:46:42;;;;;;;8.52;4.20;;;26.30;62.80;;;;;;5000626;28;20049;-62
2023/06/10 11:49:08;;;;;;;6.30;4.25;;;26.30;62.60;;;;;;5008360;28;20029;-60
2023/06/10 11:51:48;;;;;;;6.88;4.50;;;26.40;62.80;;;;;;5008798;28;20040;-61
2023/06/10 11:54:15;;;;;;;7.18;3.83;;;26.40;62.20;;;;;;5005467;28;20048;-63
2023/06/10 11:56:40;;;;;;;6.68;4.10;;;26.40;62.20;;;;;;5012350;28;20041;-63
2023/06/10 11:59:07;;;;;;;4.32;3.90;;;26.50;62.50;;;;;;5012794;28;20038;-59
2023/06/10 12:01:36;;;;;;;5.13;3.80;;;26.60;62.40;;;;;;5009789;28;20041;-60
2023/06/10 12:04:07;;;;;;;8.50;3.90;;;26.70;63.70;;;;;;5004429;28;20029;-60
2023/06/10 12:06:50;;;;;;;6.45;5.10;;;26.80;61.80;;;;;;5009832;28;20044;-60
2023/06/10 12:09:27;;;;;;;7.72;4.10;;;27.00;60.00;;;;;;5005375;28;20060;-60
2023/06/10 12:12:04;;;;;;;10.02;4.40;;;27.00;60.60;;;;;;5009289;28;20025;-59
2023/06/10 12:14:50;;;;;;;5.05;4.18;;;27.10;60.70;;;;;;5015154;28;20022;-61
2023/06/10 12:17:16;;;;;;;6.10;3.70;;;27.20;60.30;;;;;;5011128;28;20458;-63
2023/06/10 12:19:42;;;;;;;6.30;4.20;;;27.30;60.70;;;;;;5005768;28;20113;-63
2023/06/10 12:22:08;;;;;;;5.00;4.30;;;27.40;60.20;;;;;;5011269;28;20021;-62
2023/06/10 12:24:57;;;;;;;4.57;4.00;;;27.40;60.50;;;;;;5001875;28;20034;-62
2023/06/10 12:27:24;;;;;;;5.50;3.78;;;27.40;60.80;;;;;;5007003;28;20720;-61
2023/06/10 12:29:55;;;;;;;6.50;4.18;;;27.40;61.40;;;;;;5012269;28;20083;-63
2023/06/10 12:32:27;;;;;;;5.72;4.10;;;27.40;60.40;;;;;;5018758;28;20886;-63
2023/06/10 12:35:06;;;;;;;7.80;3.70;;;27.30;60.30;;;;;;5020913;28;20053;-61
2023/06/10 12:37:36;;;;;;;5.93;4.47;;;27.20;61.00;;;;;;4995590;28;20030;-60
2023/06/10 12:40:03;;;;;;;5.97;4.25;;;27.10;60.90;;;;;;5006495;28;20041;-63
2023/06/10 12:42:31;;;;;;;7.05;4.07;;;27.00;61.70;;;;;;5012645;28;20045;-59
2023/06/10 12:45:00;;;;;;;6.43;4.20;;;27.20;60.90;;;;;;5021633;28;20064;-60
2023/06/10 12:47:34;;;;;;;7.93;3.88;;;27.40;61.40;;;;;;5017395;28;20037;-62
2023/06/10 12:50:02;;;;;;;6.00;4.10;;;27.70;60.30;;;;;;5013010;28;20033;-62